createdAt,value
2023-07-31T00:00:54.604Z,0.00
2023-07-31T00:01:54.617Z,0.00
2023-07-31T00:02:55.850Z,0.00
2023-07-31T00:03:54.656Z,0.00
2023-07-31T00:04:54.545Z,0.00
2023-07-31T00:05:54.559Z,0.00
2023-07-31T00:06:54.558Z,0.00
2023-07-31T00:07:54.534Z,0.00
2023-07-31T00:08:54.521Z,0.00
2023-07-31T00:09:54.523Z,0.00
2023-07-31T00:10:54.497Z,0.00
2023-07-31T00:11:54.476Z,0.00
2023-07-31T00:12:54.472Z,0.00
2023-07-31T00:13:54.452Z,0.00
2023-07-31T00:14:54.449Z,0.00
2023-07-31T00:15:54.446Z,0.00
2023-07-31T00:16:54.439Z,0.00
2023-07-31T00:17:54.428Z,0.00
2023-07-31T00:18:54.408Z,0.00
2023-07-31T00:19:54.394Z,0.00
2023-07-31T00:20:54.382Z,0.00
2023-07-31T00:21:54.345Z,0.00
2023-07-31T00:22:54.361Z,0.00
2023-07-31T00:23:54.375Z,0.00
2023-07-31T00:24:54.348Z,0.00
2023-07-31T00:25:54.311Z,0.00
2023-07-31T00:26:54.338Z,0.00
2023-07-31T00:27:54.383Z,0.00
2023-07-31T00:28:54.308Z,0.00
2023-07-31T00:29:54.311Z,0.00
2023-07-31T00:30:54.263Z,0.00
2023-07-31T00:31:54.253Z,0.00
2023-07-31T00:32:54.260Z,0.00
2023-07-31T00:33:54.218Z,0.00
2023-07-31T00:34:54.226Z,0.00
2023-07-31T00:35:54.205Z,0.00
2023-07-31T00:36:54.190Z,0.00
2023-07-31T00:37:54.173Z,0.00
2023-07-31T00:38:54.174Z,0.00
2023-07-31T00:39:54.184Z,0.00
2023-07-31T00:40:54.172Z,0.00
2023-07-31T00:41:54.141Z,0.00
2023-07-31T00:42:54.143Z,0.00
2023-07-31T00:43:54.123Z,0.00
2023-07-31T00:44:54.106Z,0.00
2023-07-31T00:45:54.145Z,0.00
2023-07-31T00:46:54.077Z,0.00
2023-07-31T00:47:54.113Z,0.00
2023-07-31T00:48:54.066Z,0.00
2023-07-31T00:49:54.063Z,0.00
2023-07-31T00:50:54.049Z,0.00
2023-07-31T00:51:54.014Z,0.00
2023-07-31T00:52:54.022Z,0.00
2023-07-31T00:53:54.002Z,0.00
2023-07-31T00:54:54.098Z,0.00
2023-07-31T00:55:53.969Z,0.00
2023-07-31T00:56:53.964Z,0.00
2023-07-31T00:57:53.998Z,0.00
2023-07-31T00:58:53.953Z,0.00
2023-07-31T00:59:53.921Z,0.00
2023-07-31T01:00:53.957Z,0.00
2023-07-31T01:01:53.912Z,0.00
2023-07-31T01:02:53.988Z,0.00
2023-07-31T01:03:53.889Z,0.00
2023-07-31T01:04:53.886Z,0.00
2023-07-31T01:05:53.864Z,0.00
2023-07-31T01:06:53.861Z,0.00
2023-07-31T01:07:53.852Z,0.00
2023-07-31T01:08:53.845Z,0.00
2023-07-31T01:09:53.829Z,0.00
2023-07-31T01:10:53.810Z,0.00
2023-07-31T01:11:53.799Z,0.00
2023-07-31T01:12:53.792Z,0.00
2023-07-31T01:13:53.800Z,0.00
2023-07-31T01:14:53.759Z,0.00
2023-07-31T01:15:53.739Z,0.00
2023-07-31T01:16:53.784Z,0.00
2023-07-31T01:17:53.785Z,0.00
2023-07-31T01:18:53.741Z,0.00
2023-07-31T01:19:53.726Z,0.00
2023-07-31T01:20:53.708Z,0.00
2023-07-31T01:21:53.697Z,0.00
2023-07-31T01:22:53.680Z,0.00
2023-07-31T01:23:53.678Z,0.00
2023-07-31T01:24:53.652Z,0.00
2023-07-31T01:25:53.644Z,0.00
2023-07-31T01:26:53.625Z,0.00
2023-07-31T01:27:53.616Z,0.00
2023-07-31T01:28:53.612Z,0.00
2023-07-31T01:29:53.607Z,0.00
2023-07-31T01:30:53.629Z,0.00
2023-07-31T01:31:53.564Z,0.00
2023-07-31T01:32:53.626Z,0.00
2023-07-31T01:33:53.579Z,0.00
2023-07-31T01:34:53.534Z,0.00
2023-07-31T01:35:53.528Z,0.00
2023-07-31T01:36:53.507Z,0.00
2023-07-31T01:37:53.496Z,0.00
2023-07-31T01:38:53.485Z,0.00
2023-07-31T01:39:53.493Z,0.00
2023-07-31T01:40:53.483Z,0.00
2023-07-31T01:41:53.451Z,0.00
2023-07-31T01:42:53.485Z,0.00
2023-07-31T01:43:53.440Z,0.00
2023-07-31T01:44:53.445Z,0.00
2023-07-31T01:45:53.424Z,0.00
2023-07-31T01:46:53.482Z,0.00
2023-07-31T01:47:53.465Z,0.00
2023-07-31T01:48:53.385Z,0.00
2023-07-31T01:49:53.378Z,0.00
2023-07-31T01:50:53.378Z,0.00
2023-07-31T01:51:53.344Z,0.00
2023-07-31T01:52:53.330Z,0.00
2023-07-31T01:53:53.361Z,0.00
2023-07-31T01:54:53.328Z,0.00
2023-07-31T01:55:53.283Z,0.00
2023-07-31T01:56:53.296Z,0.00
2023-07-31T01:57:53.298Z,0.00
2023-07-31T01:58:53.289Z,0.00
2023-07-31T01:59:53.251Z,0.00
2023-07-31T02:00:53.255Z,0.00
2023-07-31T02:01:54.946Z,0.00
2023-07-31T02:02:53.317Z,0.00
2023-07-31T02:03:53.258Z,0.00
2023-07-31T02:04:53.209Z,0.00
2023-07-31T02:05:53.190Z,0.00
2023-07-31T02:06:53.189Z,0.00
2023-07-31T02:07:53.184Z,0.00
2023-07-31T02:08:53.173Z,0.00
2023-07-31T02:09:53.164Z,0.00
2023-07-31T02:10:53.132Z,0.00
2023-07-31T02:11:53.132Z,0.00
2023-07-31T02:12:53.102Z,0.00
2023-07-31T02:13:53.093Z,0.00
2023-07-31T02:14:53.124Z,0.00
2023-07-31T02:15:53.167Z,0.00
2023-07-31T02:16:53.125Z,0.00
2023-07-31T02:17:53.063Z,0.00
2023-07-31T02:18:53.049Z,0.00
2023-07-31T02:19:53.023Z,0.00
2023-07-31T02:20:53.058Z,0.00
2023-07-31T02:21:53.023Z,0.00
2023-07-31T02:22:52.996Z,0.00
2023-07-31T02:23:53.048Z,0.00
2023-07-31T02:24:52.990Z,0.00
2023-07-31T02:25:52.986Z,0.00
2023-07-31T02:26:52.954Z,0.00
2023-07-31T02:27:52.969Z,0.00
2023-07-31T02:28:52.933Z,0.00
2023-07-31T02:29:52.918Z,0.00
2023-07-31T02:30:52.928Z,0.00
2023-07-31T02:31:52.951Z,0.00
2023-07-31T02:32:52.904Z,0.00
2023-07-31T02:33:52.877Z,0.00
2023-07-31T02:34:52.858Z,0.00
2023-07-31T02:35:52.860Z,0.00
2023-07-31T02:36:52.828Z,0.00
2023-07-31T02:37:52.848Z,0.00
2023-07-31T02:38:52.829Z,0.00
2023-07-31T02:39:52.803Z,0.00
2023-07-31T02:40:52.794Z,0.00
2023-07-31T02:41:52.789Z,0.00
2023-07-31T02:42:52.773Z,0.00
2023-07-31T02:43:52.776Z,0.00
2023-07-31T02:44:52.752Z,0.00
2023-07-31T02:45:52.837Z,0.00
2023-07-31T02:46:52.732Z,0.00
2023-07-31T02:47:52.771Z,0.00
2023-07-31T02:48:52.719Z,0.00
2023-07-31T02:49:52.709Z,0.00
2023-07-31T02:50:52.682Z,0.00
2023-07-31T02:51:52.687Z,0.00
2023-07-31T02:52:52.649Z,0.00
2023-07-31T02:53:52.645Z,0.00
2023-07-31T02:54:52.639Z,0.00
2023-07-31T02:55:52.616Z,0.00
2023-07-31T02:56:52.624Z,0.00
2023-07-31T02:57:52.600Z,0.00
2023-07-31T02:58:52.590Z,0.00
2023-07-31T02:59:52.591Z,0.00
2023-07-31T03:00:52.560Z,0.00
2023-07-31T03:01:52.622Z,0.00
2023-07-31T03:02:52.596Z,0.00
2023-07-31T03:03:52.542Z,0.00
2023-07-31T03:04:52.518Z,0.00
2023-07-31T03:05:52.528Z,0.00
2023-07-31T03:06:52.483Z,0.00
2023-07-31T03:07:52.494Z,0.00
2023-07-31T03:08:52.486Z,0.00
2023-07-31T03:09:52.477Z,0.00
2023-07-31T03:10:52.456Z,0.00
2023-07-31T03:11:52.452Z,0.00
2023-07-31T03:12:52.445Z,0.00
2023-07-31T03:13:52.425Z,0.00
2023-07-31T03:14:52.440Z,0.00
2023-07-31T03:15:52.516Z,0.00
2023-07-31T03:16:52.388Z,0.00
2023-07-31T03:17:52.422Z,0.00
2023-07-31T03:18:52.379Z,0.00
2023-07-31T03:19:52.346Z,0.00
2023-07-31T03:20:52.332Z,0.00
2023-07-31T03:21:52.337Z,0.00
2023-07-31T03:22:52.328Z,0.00
2023-07-31T03:23:52.362Z,0.00
2023-07-31T03:24:52.342Z,0.00
2023-07-31T03:25:52.288Z,0.00
2023-07-31T03:26:52.291Z,0.00
2023-07-31T03:27:52.293Z,0.00
2023-07-31T03:28:52.268Z,0.00
2023-07-31T03:29:52.500Z,0.00
2023-07-31T03:30:52.232Z,0.00
2023-07-31T03:31:52.270Z,0.00
2023-07-31T03:32:52.257Z,4.00
2023-07-31T03:33:52.216Z,4.00
2023-07-31T03:34:52.194Z,4.00
2023-07-31T03:35:52.171Z,0.00
2023-07-31T03:36:52.160Z,4.00
2023-07-31T03:37:52.163Z,4.00
2023-07-31T03:38:52.152Z,4.00
2023-07-31T03:39:52.139Z,8.00
2023-07-31T03:40:52.137Z,8.00
2023-07-31T03:41:52.111Z,12.00
2023-07-31T03:42:52.078Z,12.00
2023-07-31T03:43:52.089Z,16.00
2023-07-31T03:44:52.078Z,20.00
2023-07-31T03:45:52.062Z,24.00
2023-07-31T03:46:52.070Z,28.00
2023-07-31T03:47:52.063Z,28.00
2023-07-31T03:48:52.049Z,36.00
2023-07-31T03:49:52.023Z,40.00
2023-07-31T03:50:52.030Z,44.00
2023-07-31T03:51:52.072Z,52.00
2023-07-31T03:52:51.975Z,56.00
2023-07-31T03:53:51.976Z,64.00
2023-07-31T03:54:51.961Z,68.00
2023-07-31T03:55:51.940Z,80.00
2023-07-31T03:56:51.932Z,84.00
2023-07-31T03:57:51.955Z,92.00
2023-07-31T03:58:51.928Z,104.00
2023-07-31T03:59:51.899Z,112.00
2023-07-31T04:00:51.906Z,120.00
2023-07-31T04:01:51.888Z,124.00
2023-07-31T04:02:51.899Z,132.00
2023-07-31T04:03:51.854Z,144.00
2023-07-31T04:04:51.859Z,156.00
2023-07-31T04:05:51.839Z,172.00
2023-07-31T04:06:51.827Z,188.00
2023-07-31T04:07:51.811Z,204.00
2023-07-31T04:08:51.787Z,224.00
2023-07-31T04:09:51.789Z,240.00
2023-07-31T04:10:51.781Z,256.00
2023-07-31T04:11:51.774Z,276.00
2023-07-31T04:12:51.767Z,296.00
2023-07-31T04:13:51.765Z,304.00
2023-07-31T04:14:51.731Z,316.00
2023-07-31T04:15:51.761Z,332.00
2023-07-31T04:16:51.777Z,348.00
2023-07-31T04:17:51.743Z,368.00
2023-07-31T04:18:51.692Z,384.00
2023-07-31T04:19:51.716Z,408.00
2023-07-31T04:20:51.664Z,432.00
2023-07-31T04:21:51.683Z,460.00
2023-07-31T04:22:51.648Z,488.00
2023-07-31T04:23:51.622Z,520.00
2023-07-31T04:24:51.624Z,552.00
2023-07-31T04:25:51.619Z,584.00
2023-07-31T04:26:51.585Z,624.00
2023-07-31T04:27:51.610Z,660.00
2023-07-31T04:28:51.598Z,680.00
2023-07-31T04:29:51.575Z,684.00
2023-07-31T04:30:51.585Z,696.00
2023-07-31T04:31:51.569Z,716.00
2023-07-31T04:32:51.613Z,744.00
2023-07-31T04:33:51.525Z,764.00
2023-07-31T04:34:51.505Z,796.00
2023-07-31T04:35:51.500Z,836.00
2023-07-31T04:36:51.505Z,864.00
2023-07-31T04:37:51.503Z,884.00
2023-07-31T04:38:51.554Z,908.00
2023-07-31T04:39:51.465Z,932.00
2023-07-31T04:40:51.456Z,968.00
2023-07-31T04:41:51.453Z,1016.00
2023-07-31T04:42:51.441Z,1096.00
2023-07-31T04:43:51.456Z,1172.00
2023-07-31T04:44:51.398Z,1236.00
2023-07-31T04:45:51.434Z,1240.00
2023-07-31T04:46:51.454Z,1180.00
2023-07-31T04:47:51.369Z,1092.00
2023-07-31T04:48:51.390Z,1036.00
2023-07-31T04:49:51.357Z,956.00
2023-07-31T04:50:51.341Z,892.00
2023-07-31T04:51:51.319Z,848.00
2023-07-31T04:52:51.319Z,812.00
2023-07-31T04:53:51.284Z,788.00
2023-07-31T04:54:51.282Z,772.00
2023-07-31T04:55:51.274Z,760.00
2023-07-31T04:56:51.262Z,756.00
2023-07-31T04:57:51.264Z,772.00
2023-07-31T04:58:51.245Z,804.00
2023-07-31T04:59:51.622Z,868.00
2023-07-31T05:00:51.243Z,876.00
2023-07-31T05:01:51.306Z,844.00
2023-07-31T05:02:51.298Z,888.00
2023-07-31T05:03:51.242Z,984.00
2023-07-31T05:04:51.178Z,1064.00
2023-07-31T05:05:51.163Z,1096.00
2023-07-31T05:06:51.148Z,1044.00
2023-07-31T05:07:51.154Z,920.00
2023-07-31T05:08:51.130Z,792.00
2023-07-31T05:09:51.136Z,696.00
2023-07-31T05:10:51.122Z,644.00
2023-07-31T05:11:51.098Z,616.00
2023-07-31T05:12:51.109Z,608.00
2023-07-31T05:13:51.096Z,632.00
2023-07-31T05:14:51.039Z,692.00
2023-07-31T05:15:51.074Z,780.00
2023-07-31T05:16:51.071Z,916.00
2023-07-31T05:17:51.058Z,1040.00
2023-07-31T05:18:51.031Z,1140.00
2023-07-31T05:19:51.036Z,1244.00
2023-07-31T05:20:50.978Z,1360.00
2023-07-31T05:21:50.981Z,1556.00
2023-07-31T05:22:50.970Z,1764.00
2023-07-31T05:23:50.959Z,1920.00
2023-07-31T05:24:50.943Z,2032.00
2023-07-31T05:25:50.938Z,2180.00
2023-07-31T05:26:50.916Z,2324.00
2023-07-31T05:27:50.922Z,2384.00
2023-07-31T05:28:50.894Z,2412.00
2023-07-31T05:29:50.904Z,2512.00
2023-07-31T05:30:50.885Z,2692.00
2023-07-31T05:31:50.910Z,2844.00
2023-07-31T05:32:50.885Z,2916.00
2023-07-31T05:33:50.842Z,3000.00
2023-07-31T05:34:50.852Z,3128.00
2023-07-31T05:35:50.846Z,3344.00
2023-07-31T05:36:50.805Z,3620.00
2023-07-31T05:37:50.797Z,3940.00
2023-07-31T05:38:50.776Z,4236.00
2023-07-31T05:39:50.781Z,4336.00
2023-07-31T05:40:50.798Z,4060.00
2023-07-31T05:41:50.778Z,3676.00
2023-07-31T05:42:50.750Z,3396.00
2023-07-31T05:43:50.745Z,3164.00
2023-07-31T05:44:50.724Z,3044.00
2023-07-31T05:45:50.720Z,2952.00
2023-07-31T05:46:50.681Z,2848.00
2023-07-31T05:47:50.698Z,2784.00
2023-07-31T05:48:50.673Z,2740.00
2023-07-31T05:49:50.674Z,2672.00
2023-07-31T05:50:50.647Z,2536.00
2023-07-31T05:51:50.628Z,2400.00
2023-07-31T05:52:50.617Z,2256.00
2023-07-31T05:53:50.630Z,2168.00
2023-07-31T05:54:50.592Z,2144.00
2023-07-31T05:55:50.598Z,2236.00
2023-07-31T05:56:50.587Z,2320.00
2023-07-31T05:57:50.604Z,2400.00
2023-07-31T05:58:50.542Z,2540.00
2023-07-31T05:59:50.542Z,2744.00
2023-07-31T06:00:50.544Z,2964.00
2023-07-31T06:01:50.588Z,3040.00
2023-07-31T06:02:50.665Z,3100.00
2023-07-31T06:03:50.603Z,3132.00
2023-07-31T06:04:50.585Z,3076.00
2023-07-31T06:05:50.494Z,3092.00
2023-07-31T06:06:50.463Z,3120.00
2023-07-31T06:07:50.462Z,3156.00
2023-07-31T06:08:50.452Z,3180.00
2023-07-31T06:09:50.585Z,3244.00
2023-07-31T06:10:50.444Z,3352.00
2023-07-31T06:11:50.418Z,3536.00
2023-07-31T06:12:50.405Z,3812.00
2023-07-31T06:13:50.398Z,4000.00
2023-07-31T06:14:50.381Z,4036.00
2023-07-31T06:15:50.403Z,3980.00
2023-07-31T06:16:50.373Z,3796.00
2023-07-31T06:17:50.365Z,3616.00
2023-07-31T06:18:50.328Z,3484.00
2023-07-31T06:19:50.318Z,3412.00
2023-07-31T06:20:50.290Z,3284.00
2023-07-31T06:21:50.285Z,3192.00
2023-07-31T06:22:50.297Z,3196.00
2023-07-31T06:23:50.280Z,3312.00
2023-07-31T06:24:50.264Z,3484.00
2023-07-31T06:25:50.258Z,3652.00
2023-07-31T06:26:50.234Z,3768.00
2023-07-31T06:27:50.246Z,3872.00
2023-07-31T06:28:50.234Z,3912.00
2023-07-31T06:29:50.211Z,4020.00
2023-07-31T06:30:50.200Z,4240.00
2023-07-31T06:31:50.238Z,4496.00
2023-07-31T06:32:50.245Z,4664.00
2023-07-31T06:33:50.182Z,4760.00
2023-07-31T06:34:50.148Z,4952.00
2023-07-31T06:35:50.131Z,5252.00
2023-07-31T06:36:50.129Z,5420.00
2023-07-31T06:37:50.131Z,5152.00
2023-07-31T06:38:50.179Z,4944.00
2023-07-31T06:39:50.088Z,5132.00
2023-07-31T06:40:50.086Z,5360.00
2023-07-31T06:41:50.060Z,5320.00
2023-07-31T06:42:50.051Z,5192.00
2023-07-31T06:43:50.048Z,5044.00
2023-07-31T06:44:50.040Z,4928.00
2023-07-31T06:45:50.061Z,4748.00
2023-07-31T06:46:50.002Z,4584.00
2023-07-31T06:47:50.048Z,4452.00
2023-07-31T06:48:49.998Z,4332.00
2023-07-31T06:49:49.982Z,4164.00
2023-07-31T06:50:49.966Z,3936.00
2023-07-31T06:51:49.964Z,3880.00
2023-07-31T06:52:49.966Z,3936.00
2023-07-31T06:53:49.945Z,3984.00
2023-07-31T06:54:49.926Z,3980.00
2023-07-31T06:55:49.913Z,3980.00
2023-07-31T06:56:49.890Z,4252.00
2023-07-31T06:57:49.910Z,4776.00
2023-07-31T06:58:49.886Z,5128.00
2023-07-31T06:59:49.873Z,5264.00
2023-07-31T07:00:49.896Z,5256.00
2023-07-31T07:01:49.842Z,5252.00
2023-07-31T07:02:49.852Z,5384.00
2023-07-31T07:03:49.841Z,5464.00
2023-07-31T07:04:49.798Z,5536.00
2023-07-31T07:05:49.839Z,5840.00
2023-07-31T07:06:49.806Z,6232.00
2023-07-31T07:07:49.781Z,6424.00
2023-07-31T07:08:49.768Z,6592.00
2023-07-31T07:09:49.738Z,6764.00
2023-07-31T07:10:49.748Z,6976.00
2023-07-31T07:11:49.730Z,6952.00
2023-07-31T07:12:49.759Z,6792.00
2023-07-31T07:13:49.723Z,6648.00
2023-07-31T07:14:49.695Z,6472.00
2023-07-31T07:15:49.696Z,6176.00
2023-07-31T07:16:49.689Z,5652.00
2023-07-31T07:17:49.723Z,5268.00
2023-07-31T07:19:02.276Z,5080.00
2023-07-31T07:19:49.620Z,4996.00
2023-07-31T07:20:49.628Z,4828.00
2023-07-31T07:21:49.633Z,4744.00
2023-07-31T07:22:49.612Z,4584.00
2023-07-31T07:23:49.593Z,4156.00
2023-07-31T07:24:49.603Z,3944.00
2023-07-31T07:25:49.581Z,3916.00
2023-07-31T07:26:49.566Z,4168.00
2023-07-31T07:27:49.545Z,4184.00
2023-07-31T07:28:49.562Z,3840.00
2023-07-31T07:29:49.530Z,3632.00
2023-07-31T07:30:49.564Z,3760.00
2023-07-31T07:31:49.614Z,4232.00
2023-07-31T07:32:49.556Z,4784.00
2023-07-31T07:33:49.530Z,5256.00
2023-07-31T07:34:49.480Z,5204.00
2023-07-31T07:35:49.461Z,4900.00
2023-07-31T07:36:49.449Z,4708.00
2023-07-31T07:37:50.946Z,4964.00
2023-07-31T07:38:49.426Z,5492.00
2023-07-31T07:39:49.411Z,5668.00
2023-07-31T07:40:49.417Z,5872.00
2023-07-31T07:41:49.399Z,6336.00
2023-07-31T07:42:49.390Z,6684.00
2023-07-31T07:43:49.352Z,7044.00
2023-07-31T07:44:49.376Z,7348.00
2023-07-31T07:45:49.340Z,7528.00
2023-07-31T07:46:49.391Z,7624.00
2023-07-31T07:47:49.355Z,7736.00
2023-07-31T07:48:49.318Z,7992.00
2023-07-31T07:49:53.137Z,7880.00
2023-07-31T07:50:49.318Z,7612.00
2023-07-31T07:51:49.270Z,7212.00
2023-07-31T07:52:49.290Z,6748.00
2023-07-31T07:53:49.257Z,6492.00
2023-07-31T07:54:49.370Z,6444.00
2023-07-31T07:55:49.239Z,6392.00
2023-07-31T07:56:49.309Z,6208.00
2023-07-31T07:57:49.233Z,6128.00
2023-07-31T07:58:49.213Z,6132.00
2023-07-31T07:59:49.176Z,6056.00
2023-07-31T08:00:49.246Z,6076.00
2023-07-31T08:01:49.182Z,6144.00
2023-07-31T08:02:49.210Z,6148.00
2023-07-31T08:03:49.201Z,6032.00
2023-07-31T08:04:49.129Z,5864.00
2023-07-31T08:05:49.135Z,5816.00
2023-07-31T08:06:49.130Z,5660.00
2023-07-31T08:07:49.101Z,5392.00
2023-07-31T08:08:49.113Z,5280.00
2023-07-31T08:09:49.086Z,5292.00
2023-07-31T08:10:49.068Z,5324.00
2023-07-31T08:11:49.067Z,5404.00
2023-07-31T08:12:49.060Z,5440.00
2023-07-31T08:13:49.037Z,5596.00
2023-07-31T08:14:49.041Z,5712.00
2023-07-31T08:15:49.021Z,5720.00
2023-07-31T08:16:49.042Z,5868.00
2023-07-31T08:17:49.028Z,6084.00
2023-07-31T08:18:49.041Z,6460.00
2023-07-31T08:19:49.016Z,6228.00
2023-07-31T08:20:48.963Z,6280.00
2023-07-31T08:21:48.975Z,6364.00
2023-07-31T08:22:48.960Z,6324.00
2023-07-31T08:23:48.919Z,6324.00
2023-07-31T08:24:48.936Z,6404.00
2023-07-31T08:25:48.907Z,6636.00
2023-07-31T08:26:48.920Z,6436.00
2023-07-31T08:27:48.905Z,6288.00
2023-07-31T08:28:48.874Z,6632.00
2023-07-31T08:29:48.873Z,6912.00
2023-07-31T08:30:48.981Z,7136.00
2023-07-31T08:31:48.881Z,6684.00
2023-07-31T08:32:48.899Z,6472.00
2023-07-31T08:33:48.844Z,6800.00
2023-07-31T08:34:48.838Z,6968.00
2023-07-31T08:35:48.822Z,6904.00
2023-07-31T08:36:48.813Z,7092.00
2023-07-31T08:37:48.802Z,7864.00
2023-07-31T08:38:48.797Z,8900.00
2023-07-31T08:39:48.771Z,10112.00
2023-07-31T08:40:48.760Z,10336.00
2023-07-31T08:41:48.751Z,10096.00
2023-07-31T08:42:48.749Z,9392.00
2023-07-31T08:43:48.736Z,8552.00
2023-07-31T08:44:48.721Z,8072.00
2023-07-31T08:45:48.739Z,8296.00
2023-07-31T08:46:48.716Z,9252.00
2023-07-31T08:47:48.928Z,10444.00
2023-07-31T08:48:48.691Z,10764.00
2023-07-31T08:49:48.684Z,10820.00
2023-07-31T08:50:48.653Z,10064.00
2023-07-31T08:51:48.655Z,9472.00
2023-07-31T08:52:48.637Z,9012.00
2023-07-31T08:53:48.656Z,9200.00
2023-07-31T08:54:48.607Z,9680.00
2023-07-31T08:55:48.589Z,9156.00
2023-07-31T08:56:48.588Z,8848.00
2023-07-31T08:57:48.646Z,8712.00
2023-07-31T08:58:48.573Z,8748.00
2023-07-31T08:59:48.546Z,9276.00
2023-07-31T09:00:48.547Z,9408.00
2023-07-31T09:01:48.606Z,9708.00
2023-07-31T09:02:48.604Z,10320.00
2023-07-31T09:03:48.591Z,10404.00
2023-07-31T09:04:48.571Z,10500.00
2023-07-31T09:05:48.501Z,10600.00
2023-07-31T09:06:48.491Z,10196.00
2023-07-31T09:07:48.537Z,9912.00
2023-07-31T09:08:48.484Z,10424.00
2023-07-31T09:09:48.459Z,11064.00
2023-07-31T09:10:48.465Z,10920.00
2023-07-31T09:11:48.460Z,10924.00
2023-07-31T09:12:48.433Z,10384.00
2023-07-31T09:13:48.483Z,9416.00
2023-07-31T09:14:48.415Z,9100.00
2023-07-31T09:15:48.417Z,9264.00
2023-07-31T09:16:48.402Z,9640.00
2023-07-31T09:17:48.458Z,9892.00
2023-07-31T09:18:48.380Z,9832.00
2023-07-31T09:19:48.353Z,9700.00
2023-07-31T09:20:48.333Z,9224.00
2023-07-31T09:21:48.370Z,8916.00
2023-07-31T09:22:48.340Z,8856.00
2023-07-31T09:23:48.307Z,9232.00
2023-07-31T09:24:48.300Z,9864.00
2023-07-31T09:25:48.300Z,9984.00
2023-07-31T09:26:48.267Z,9224.00
2023-07-31T09:27:48.291Z,8448.00
2023-07-31T09:28:48.422Z,8260.00
2023-07-31T09:29:48.268Z,8672.00
2023-07-31T09:30:48.263Z,8692.00
2023-07-31T09:31:48.321Z,8240.00
2023-07-31T09:32:48.251Z,7832.00
2023-07-31T09:33:48.212Z,7568.00
2023-07-31T09:34:48.208Z,7364.00
2023-07-31T09:35:48.190Z,7312.00
2023-07-31T09:36:48.170Z,7252.00
2023-07-31T09:37:48.154Z,7348.00
2023-07-31T09:38:48.199Z,7524.00
2023-07-31T09:39:48.175Z,7668.00
2023-07-31T09:40:48.169Z,7844.00
2023-07-31T09:41:48.110Z,7964.00
2023-07-31T09:42:48.133Z,8192.00
2023-07-31T09:43:48.102Z,8392.00
2023-07-31T09:44:48.109Z,8384.00
2023-07-31T09:45:48.123Z,8456.00
2023-07-31T09:46:48.080Z,8964.00
2023-07-31T09:47:48.103Z,9340.00
2023-07-31T09:48:48.068Z,8900.00
2023-07-31T09:49:48.072Z,8452.00
2023-07-31T09:50:48.064Z,8540.00
2023-07-31T09:51:48.056Z,8548.00
2023-07-31T09:52:48.038Z,8412.00
2023-07-31T09:53:47.994Z,8204.00
2023-07-31T09:54:48.023Z,7840.00
2023-07-31T09:55:47.980Z,7884.00
2023-07-31T09:56:47.959Z,7556.00
2023-07-31T09:57:47.956Z,7200.00
2023-07-31T09:58:47.949Z,7384.00
2023-07-31T09:59:47.955Z,7232.00
2023-07-31T10:00:47.910Z,6600.00
2023-07-31T10:01:48.004Z,6268.00
2023-07-31T10:02:47.978Z,6428.00
2023-07-31T10:03:47.893Z,6804.00
2023-07-31T10:04:47.886Z,7340.00
2023-07-31T10:05:47.878Z,8324.00
2023-07-31T10:06:47.859Z,9800.00
2023-07-31T10:07:47.856Z,10844.00
2023-07-31T10:08:47.839Z,10700.00
2023-07-31T10:09:47.813Z,10488.00
2023-07-31T10:10:47.839Z,9808.00
2023-07-31T10:11:47.801Z,9216.00
2023-07-31T10:12:47.784Z,8812.00
2023-07-31T10:13:47.783Z,8456.00
2023-07-31T10:14:47.789Z,8428.00
2023-07-31T10:15:47.785Z,8492.00
2023-07-31T10:16:47.758Z,8112.00
2023-07-31T10:17:47.750Z,7304.00
2023-07-31T10:18:47.751Z,6936.00
2023-07-31T10:19:47.723Z,7360.00
2023-07-31T10:20:47.721Z,7960.00
2023-07-31T10:21:47.762Z,7844.00
2023-07-31T10:22:47.690Z,7508.00
2023-07-31T10:23:47.680Z,7728.00
2023-07-31T10:24:47.667Z,7432.00
2023-07-31T10:25:47.667Z,7452.00
2023-07-31T10:26:47.667Z,7700.00
2023-07-31T10:27:47.627Z,8172.00
2023-07-31T10:28:47.685Z,8372.00
2023-07-31T10:29:47.656Z,8100.00
2023-07-31T10:30:47.638Z,8320.00
2023-07-31T10:31:47.664Z,8876.00
2023-07-31T10:32:47.686Z,8776.00
2023-07-31T10:33:47.575Z,7848.00
2023-07-31T10:34:47.567Z,6556.00
2023-07-31T10:35:47.546Z,5624.00
2023-07-31T10:36:47.624Z,5796.00
2023-07-31T10:37:47.538Z,6232.00
2023-07-31T10:38:47.505Z,6676.00
2023-07-31T10:39:47.515Z,7140.00
2023-07-31T10:40:47.484Z,7196.00
2023-07-31T10:41:47.491Z,7680.00
2023-07-31T10:42:47.472Z,7920.00
2023-07-31T10:43:47.475Z,7804.00
2023-07-31T10:44:47.502Z,7572.00
2023-07-31T10:45:47.462Z,8028.00
2023-07-31T10:46:47.516Z,8392.00
2023-07-31T10:47:47.479Z,9220.00
2023-07-31T10:48:47.425Z,10028.00
2023-07-31T10:49:47.419Z,9988.00
2023-07-31T10:50:47.420Z,10196.00
2023-07-31T10:51:47.379Z,11112.00
2023-07-31T10:52:47.373Z,12040.00
2023-07-31T10:53:47.358Z,13076.00
2023-07-31T10:54:47.340Z,13084.00
2023-07-31T10:55:47.346Z,12500.00
2023-07-31T10:56:47.346Z,11868.00
2023-07-31T10:57:47.306Z,12432.00
2023-07-31T10:58:47.365Z,12852.00
2023-07-31T10:59:47.277Z,12572.00
2023-07-31T11:00:47.335Z,12428.00
2023-07-31T11:01:48.146Z,12856.00
2023-07-31T11:02:47.258Z,12300.00
2023-07-31T11:03:47.332Z,11296.00
2023-07-31T11:04:47.233Z,10544.00
2023-07-31T11:05:47.294Z,10616.00
2023-07-31T11:06:47.199Z,10464.00
2023-07-31T11:07:47.188Z,10620.00
2023-07-31T11:08:47.213Z,11324.00
2023-07-31T11:09:47.178Z,12688.00
2023-07-31T11:10:47.172Z,12996.00
2023-07-31T11:11:47.158Z,12708.00
2023-07-31T11:12:47.141Z,12560.00
2023-07-31T11:13:47.138Z,12340.00
2023-07-31T11:14:47.215Z,12320.00
2023-07-31T11:15:47.105Z,12416.00
2023-07-31T11:16:47.127Z,12132.00
2023-07-31T11:17:47.106Z,11624.00
2023-07-31T11:18:47.088Z,11596.00
2023-07-31T11:19:47.079Z,12560.00
2023-07-31T11:20:47.095Z,13520.00
2023-07-31T11:21:47.044Z,14124.00
2023-07-31T11:22:47.001Z,15020.00
2023-07-31T11:23:47.914Z,16344.00
2023-07-31T11:24:46.985Z,15512.00
2023-07-31T11:25:46.978Z,13208.00
2023-07-31T11:26:47.070Z,13364.00
2023-07-31T11:27:46.951Z,13940.00
2023-07-31T11:28:46.928Z,15920.00
2023-07-31T11:29:46.924Z,16660.00
2023-07-31T11:30:46.967Z,16380.00
2023-07-31T11:31:46.911Z,14432.00
2023-07-31T11:32:46.980Z,12796.00
2023-07-31T11:33:46.913Z,11528.00
2023-07-31T11:34:46.878Z,10744.00
2023-07-31T11:35:46.908Z,10580.00
2023-07-31T11:36:46.864Z,10400.00
2023-07-31T11:37:46.898Z,10376.00
2023-07-31T11:38:46.906Z,10952.00
2023-07-31T11:39:46.815Z,11148.00
2023-07-31T11:40:46.869Z,11108.00
2023-07-31T11:41:46.808Z,10524.00
2023-07-31T11:42:46.835Z,10952.00
2023-07-31T11:43:46.779Z,11692.00
2023-07-31T11:44:46.750Z,12568.00
2023-07-31T11:45:46.800Z,13332.00
2023-07-31T11:46:46.821Z,13600.00
2023-07-31T11:47:46.783Z,14036.00
2023-07-31T11:48:46.755Z,14144.00
2023-07-31T11:49:46.707Z,14424.00
2023-07-31T11:50:46.700Z,14776.00
2023-07-31T11:51:46.697Z,15104.00
2023-07-31T11:52:46.685Z,15508.00
2023-07-31T11:53:46.672Z,15588.00
2023-07-31T11:54:46.662Z,15800.00
2023-07-31T11:55:46.650Z,16328.00
2023-07-31T11:56:46.699Z,16824.00
2023-07-31T11:57:46.619Z,17760.00
2023-07-31T11:58:46.621Z,17244.00
2023-07-31T11:59:46.614Z,17632.00
2023-07-31T12:00:46.588Z,19008.00
2023-07-31T12:01:46.626Z,19040.00
2023-07-31T12:02:46.595Z,18144.00
2023-07-31T12:03:46.584Z,18208.00
2023-07-31T12:04:46.528Z,20096.00
2023-07-31T12:05:46.529Z,18688.00
2023-07-31T12:06:46.535Z,17696.00
2023-07-31T12:07:46.489Z,16060.00
2023-07-31T12:08:46.492Z,14032.00
2023-07-31T12:09:46.480Z,13652.00
2023-07-31T12:10:46.457Z,12716.00
2023-07-31T12:11:46.452Z,11092.00
2023-07-31T12:12:46.446Z,10676.00
2023-07-31T12:13:46.448Z,10736.00
2023-07-31T12:14:46.443Z,10664.00
2023-07-31T12:15:46.415Z,10852.00
2023-07-31T12:16:46.485Z,11100.00
2023-07-31T12:17:46.417Z,11432.00
2023-07-31T12:18:46.383Z,11520.00
2023-07-31T12:19:46.354Z,11656.00
2023-07-31T12:20:46.367Z,11156.00
2023-07-31T12:21:46.326Z,10232.00
2023-07-31T12:22:46.345Z,9592.00
2023-07-31T12:23:46.312Z,9584.00
2023-07-31T12:24:46.289Z,9944.00
2023-07-31T12:25:46.309Z,10744.00